createdAt,value
2023-05-10T00:01:28.639Z,11.66
2023-05-10T00:04:02.014Z,11.50
2023-05-10T00:06:36.657Z,11.70
2023-05-10T00:09:09.551Z,11.44
2023-05-10T00:11:42.513Z,11.22
2023-05-10T00:14:15.684Z,10.91
2023-05-10T00:16:48.880Z,11.05
2023-05-10T00:19:21.718Z,11.10
2023-05-10T00:21:56.415Z,11.37
2023-05-10T00:24:29.315Z,10.94
2023-05-10T00:27:02.330Z,10.78
2023-05-10T00:29:35.090Z,11.11
2023-05-10T00:32:08.103Z,10.98
2023-05-10T00:34:41.196Z,11.56
2023-05-10T00:37:15.442Z,10.90
2023-05-10T00:39:48.227Z,11.03
2023-05-10T00:42:21.140Z,10.90
2023-05-10T00:44:53.985Z,11.10
2023-05-10T00:47:27.129Z,11.07
2023-05-10T00:50:01.660Z,11.07
2023-05-10T00:52:35.888Z,11.29
2023-05-10T00:55:09.305Z,11.00
2023-05-10T00:57:42.262Z,11.09
2023-05-10T01:00:18.990Z,10.74
2023-05-10T01:02:51.968Z,11.27
2023-05-10T01:05:25.484Z,11.31
2023-05-10T01:07:59.828Z,10.85
2023-05-10T01:10:33.205Z,11.01
2023-05-10T01:13:06.607Z,10.67
2023-05-10T01:15:39.829Z,10.89
2023-05-10T01:18:12.675Z,10.56
2023-05-10T01:20:49.892Z,11.00
2023-05-10T01:23:38.790Z,10.34
2023-05-10T01:26:35.316Z,10.56
2023-05-10T01:29:15.733Z,10.95
2023-05-10T01:32:09.280Z,10.37
2023-05-10T01:34:47.843Z,10.58
2023-05-10T01:37:23.879Z,10.83
2023-05-10T01:40:00.582Z,10.53
2023-05-10T01:42:38.646Z,10.54
2023-05-10T01:45:15.770Z,11.29
2023-05-10T01:47:52.709Z,10.84
2023-05-10T01:50:29.770Z,10.51
2023-05-10T01:53:04.397Z,10.50
2023-05-10T01:55:38.075Z,11.21
2023-05-10T01:58:12.096Z,11.13
2023-05-10T02:00:46.609Z,10.72
2023-05-10T02:03:20.673Z,10.32
2023-05-10T02:05:55.995Z,10.62
2023-05-10T02:08:29.133Z,10.40
2023-05-10T02:11:03.372Z,10.26
2023-05-10T02:13:38.524Z,10.48
2023-05-10T02:16:11.808Z,10.22
2023-05-10T02:18:44.760Z,10.21
2023-05-10T02:21:19.452Z,10.05
2023-05-10T02:23:54.074Z,10.22
2023-05-10T02:26:28.309Z,10.24
2023-05-10T02:29:01.251Z,10.08
2023-05-10T02:31:35.290Z,9.93
2023-05-10T02:34:08.584Z,10.47
2023-05-10T02:36:43.371Z,10.23
2023-05-10T02:39:16.565Z,9.86
2023-05-10T02:41:50.478Z,10.24
2023-05-10T02:44:24.604Z,9.86
2023-05-10T02:46:58.090Z,9.95
2023-05-10T02:49:30.940Z,10.36
2023-05-10T02:52:07.986Z,10.84
2023-05-10T02:54:43.376Z,10.06
2023-05-10T02:57:19.219Z,10.56
2023-05-10T02:59:52.499Z,10.19
2023-05-10T03:02:25.490Z,10.14
2023-05-10T03:04:58.317Z,10.29
2023-05-10T03:07:32.856Z,10.19
2023-05-10T03:10:06.896Z,10.49
2023-05-10T03:12:59.035Z,10.60
2023-05-10T03:15:39.682Z,10.77
2023-05-10T03:18:15.176Z,10.54
2023-05-10T03:20:50.536Z,10.26
2023-05-10T03:23:28.469Z,10.31
2023-05-10T03:26:01.671Z,10.10
2023-05-10T03:28:36.291Z,9.97
2023-05-10T03:31:09.583Z,10.29
2023-05-10T03:33:48.001Z,10.31
2023-05-10T03:36:21.316Z,10.33
2023-05-10T03:38:55.625Z,10.22
2023-05-10T03:41:28.418Z,10.71
2023-05-10T03:44:01.162Z,9.81
2023-05-10T03:46:34.254Z,10.38
2023-05-10T03:49:07.578Z,9.98
2023-05-10T03:51:40.589Z,9.80
2023-05-10T03:54:14.781Z,10.01
2023-05-10T03:56:49.985Z,10.13
2023-05-10T03:59:22.829Z,10.37
2023-05-10T04:01:55.716Z,10.73
2023-05-10T04:04:28.557Z,10.92
2023-05-10T04:07:01.400Z,10.11
2023-05-10T04:09:35.634Z,10.56
2023-05-10T04:12:10.774Z,10.45
2023-05-10T04:14:43.985Z,10.73
2023-05-10T04:17:17.317Z,10.36
2023-05-10T04:19:50.396Z,10.57
2023-05-10T04:22:23.469Z,10.68
2023-05-10T04:24:57.797Z,10.63
2023-05-10T04:27:30.690Z,10.54
2023-05-10T04:30:03.663Z,10.19
2023-05-10T04:32:36.473Z,10.05
2023-05-10T04:35:11.248Z,10.54
2023-05-10T04:37:44.283Z,10.47
2023-05-10T04:40:18.846Z,10.65
2023-05-10T04:42:51.809Z,10.41
2023-05-10T04:45:24.808Z,10.59
2023-05-10T04:47:57.647Z,10.43
2023-05-10T04:50:30.504Z,10.51
2023-05-10T04:53:03.337Z,11.08
2023-05-10T04:55:38.007Z,10.57
2023-05-10T04:58:12.088Z,10.66
2023-05-10T05:00:45.186Z,10.51
2023-05-10T05:03:18.370Z,10.69
2023-05-10T05:05:51.217Z,10.39
2023-05-10T05:08:24.788Z,10.82
2023-05-10T05:11:00.479Z,10.60
2023-05-10T05:13:33.553Z,10.74
2023-05-10T05:16:07.832Z,11.15
2023-05-10T05:18:40.718Z,10.76
2023-05-10T05:21:17.325Z,10.90
2023-05-10T05:23:50.130Z,10.99
2023-05-10T05:26:24.574Z,10.99
2023-05-10T05:28:57.732Z,10.85
2023-05-10T05:31:31.532Z,10.70
2023-05-10T05:34:04.464Z,10.81
2023-05-10T05:36:39.232Z,10.92
2023-05-10T05:39:12.079Z,10.93
2023-05-10T05:41:47.277Z,10.78
2023-05-10T05:44:20.054Z,11.02
2023-05-10T05:46:53.205Z,10.66
2023-05-10T05:49:26.182Z,10.53
2023-05-10T05:52:00.775Z,10.49
2023-05-10T05:54:33.678Z,11.26
2023-05-10T05:57:08.557Z,10.91
2023-05-10T05:59:44.936Z,11.10
2023-05-10T06:02:17.829Z,10.67
2023-05-10T06:04:51.180Z,11.15
2023-05-10T06:07:24.326Z,11.26
2023-05-10T06:09:57.191Z,11.00
2023-05-10T06:12:31.598Z,11.21
2023-05-10T06:15:05.046Z,11.09
2023-05-10T06:17:37.973Z,10.92
2023-05-10T06:20:11.259Z,10.91
2023-05-10T06:22:44.401Z,10.84
2023-05-10T06:25:19.222Z,10.78
2023-05-10T06:27:58.172Z,11.71
2023-05-10T06:30:31.260Z,11.75
2023-05-10T06:33:04.681Z,11.56
2023-05-10T06:35:37.938Z,11.19
2023-05-10T06:38:11.618Z,11.91
2023-05-10T06:40:44.552Z,11.36
2023-05-10T06:43:19.145Z,11.58
2023-05-10T06:45:52.456Z,12.28
2023-05-10T06:48:25.788Z,11.51
2023-05-10T06:50:58.908Z,11.98
2023-05-10T06:53:32.894Z,11.58
2023-05-10T06:56:06.048Z,11.58
2023-05-10T06:58:40.322Z,12.28
2023-05-10T07:01:14.025Z,12.24
2023-05-10T07:03:47.131Z,11.92
2023-05-10T07:06:32.321Z,12.07
2023-05-10T07:09:05.976Z,12.08
2023-05-10T07:11:38.881Z,12.54
2023-05-10T07:14:13.211Z,12.02
2023-05-10T07:16:46.192Z,12.65
2023-05-10T07:19:19.590Z,12.44
2023-05-10T07:21:52.505Z,12.99
2023-05-10T07:24:25.596Z,12.14
2023-05-10T07:26:58.351Z,11.99
2023-05-10T07:29:32.701Z,12.26
2023-05-10T07:32:05.895Z,12.39
2023-05-10T07:34:38.851Z,12.26
2023-05-10T07:37:12.538Z,12.22
2023-05-10T07:39:45.400Z,12.70
2023-05-10T07:42:18.700Z,12.49
2023-05-10T07:44:53.345Z,12.53
2023-05-10T07:47:26.341Z,13.15
2023-05-10T07:49:59.476Z,12.88
2023-05-10T07:52:32.436Z,13.04
2023-05-10T07:55:05.682Z,12.99
2023-05-10T07:57:38.579Z,13.09
2023-05-10T08:00:14.349Z,13.20
2023-05-10T08:02:47.167Z,12.76
2023-05-10T08:05:20.308Z,13.21
2023-05-10T08:07:53.116Z,12.75
2023-05-10T08:10:26.686Z,13.10
2023-05-10T08:12:59.848Z,13.21
2023-05-10T08:15:34.102Z,13.73
2023-05-10T08:18:07.062Z,12.99
2023-05-10T08:20:39.971Z,12.96
2023-05-10T08:23:14.130Z,13.15
2023-05-10T08:25:47.548Z,13.54
2023-05-10T08:28:20.413Z,13.69
2023-05-10T08:30:54.721Z,13.27
2023-05-10T08:33:27.784Z,13.22
2023-05-10T08:36:01.072Z,13.45
2023-05-10T08:38:34.564Z,13.38
2023-05-10T08:41:07.503Z,13.66
2023-05-10T08:43:42.560Z,13.32
2023-05-10T08:46:18.705Z,13.18
2023-05-10T08:48:52.401Z,13.47
2023-05-10T08:51:27.830Z,13.43
2023-05-10T08:54:01.046Z,13.66
2023-05-10T08:56:34.133Z,13.56
2023-05-10T08:59:07.286Z,13.20
2023-05-10T09:01:42.532Z,12.81
2023-05-10T09:04:16.352Z,12.82
2023-05-10T09:06:49.487Z,13.09
2023-05-10T09:09:23.296Z,13.11
2023-05-10T09:11:56.541Z,12.94
2023-05-10T09:14:29.644Z,13.53
2023-05-10T09:17:04.198Z,13.69
2023-05-10T09:19:37.204Z,13.51
2023-05-10T09:22:10.585Z,13.05
2023-05-10T09:24:46.392Z,13.22
2023-05-10T09:27:19.470Z,13.01
2023-05-10T09:29:55.434Z,13.66
2023-05-10T09:32:40.023Z,13.84
2023-05-10T09:35:13.756Z,13.76
2023-05-10T09:37:48.892Z,13.09
2023-05-10T09:40:23.004Z,13.53
2023-05-10T09:42:56.632Z,13.89
2023-05-10T09:45:30.253Z,13.56
2023-05-10T09:48:05.330Z,13.85
2023-05-10T09:50:38.325Z,13.53
2023-05-10T09:53:11.845Z,13.81
2023-05-10T09:55:46.921Z,13.99
2023-05-10T09:58:20.165Z,13.38
2023-05-10T10:00:53.376Z,13.82
2023-05-10T10:03:29.679Z,13.83
2023-05-10T10:06:03.237Z,14.04
2023-05-10T10:08:37.081Z,14.14
2023-05-10T10:11:10.038Z,14.56
2023-05-10T10:13:42.987Z,14.35
2023-05-10T10:16:15.992Z,13.96
2023-05-10T10:18:50.828Z,13.88
2023-05-10T10:21:24.219Z,13.77
2023-05-10T10:23:57.280Z,13.88
2023-05-10T10:26:30.250Z,13.81
2023-05-10T10:29:13.539Z,14.21
2023-05-10T10:31:48.419Z,13.79
2023-05-10T10:34:27.995Z,13.95
2023-05-10T10:37:05.837Z,14.33
2023-05-10T10:39:38.804Z,14.17
2023-05-10T10:42:11.669Z,14.02
2023-05-10T10:44:45.793Z,14.24
2023-05-10T10:47:27.797Z,14.16
2023-05-10T10:50:09.293Z,14.50
2023-05-10T10:52:42.555Z,14.64
2023-05-10T10:55:16.149Z,15.11
2023-05-10T10:57:49.872Z,14.46
2023-05-10T11:00:24.527Z,14.40
2023-05-10T11:03:01.358Z,15.36
2023-05-10T11:05:39.809Z,15.40
2023-05-10T11:08:15.820Z,15.37
2023-05-10T11:10:56.260Z,14.97
2023-05-10T11:13:29.850Z,15.37
2023-05-10T11:16:12.121Z,15.31
2023-05-10T11:19:09.503Z,14.41
2023-05-10T11:21:55.104Z,15.65
2023-05-10T11:24:29.794Z,15.59
2023-05-10T11:27:03.013Z,15.18
2023-05-10T11:29:36.153Z,15.18
2023-05-10T11:32:09.792Z,15.12
2023-05-10T11:34:42.752Z,14.90
2023-05-10T11:37:16.991Z,15.28
2023-05-10T11:39:49.923Z,15.13
2023-05-10T11:42:23.002Z,15.21
2023-05-10T11:44:55.829Z,15.41
2023-05-10T11:47:28.930Z,15.95
2023-05-10T11:50:02.020Z,15.31
2023-05-10T11:52:39.396Z,15.70
2023-05-10T11:55:12.374Z,15.36
2023-05-10T11:57:46.920Z,16.44
2023-05-10T12:00:20.150Z,15.98
2023-05-10T12:02:53.406Z,15.88
2023-05-10T12:05:26.696Z,16.14
2023-05-10T12:08:14.666Z,16.00
2023-05-10T12:10:47.405Z,15.95
2023-05-10T12:13:21.619Z,15.76
2023-05-10T12:15:54.809Z,16.02
2023-05-10T12:18:27.978Z,15.75
2023-05-10T12:21:05.344Z,16.26
2023-05-10T12:23:39.956Z,16.37
2023-05-10T12:26:13.131Z,15.75
2023-05-10T12:28:46.471Z,16.00
2023-05-10T12:31:19.659Z,16.08
2023-05-10T12:33:53.922Z,15.66
2023-05-10T12:36:26.991Z,16.76
2023-05-10T12:39:05.935Z,15.92
2023-05-10T12:41:39.662Z,16.61
2023-05-10T12:44:13.858Z,16.07
2023-05-10T12:46:46.828Z,16.04
2023-05-10T12:49:20.647Z,16.49
2023-05-10T12:51:53.545Z,16.48
2023-05-10T12:54:27.942Z,15.74
2023-05-10T12:57:00.790Z,15.40
2023-05-10T12:59:35.258Z,15.44
2023-05-10T13:02:09.621Z,15.71
2023-05-10T13:04:43.023Z,15.35
2023-05-10T13:07:15.871Z,15.59
2023-05-10T13:09:52.741Z,15.80
2023-05-10T13:12:25.791Z,15.67
2023-05-10T13:14:58.844Z,15.75
2023-05-10T13:17:33.544Z,15.45
2023-05-10T13:20:07.796Z,15.21
2023-05-10T13:22:40.992Z,15.57
2023-05-10T13:25:15.677Z,15.44
2023-05-10T13:27:48.705Z,14.82
2023-05-10T13:30:21.749Z,15.21
2023-05-10T13:32:54.753Z,15.69
2023-05-10T13:35:27.783Z,15.45
2023-05-10T13:38:00.911Z,15.65
2023-05-10T13:40:35.250Z,15.42
2023-05-10T13:43:08.122Z,15.72
2023-05-10T13:45:41.293Z,15.87
2023-05-10T13:48:14.302Z,15.45
2023-05-10T13:50:47.457Z,15.77
2023-05-10T13:53:20.383Z,15.53
2023-05-10T13:55:54.716Z,15.81
2023-05-10T13:58:36.813Z,15.56
2023-05-10T14:01:24.615Z,15.47
2023-05-10T14:04:12.393Z,15.43
2023-05-10T14:06:45.678Z,15.14
2023-05-10T14:09:18.699Z,15.53
2023-05-10T14:11:53.263Z,15.66
2023-05-10T14:14:26.162Z,15.58
2023-05-10T14:17:00.364Z,15.59
2023-05-10T14:19:34.956Z,15.58
2023-05-10T14:22:07.840Z,15.50
2023-05-10T14:24:40.868Z,15.65
2023-05-10T14:27:15.278Z,15.37
2023-05-10T14:29:49.030Z,15.28
2023-05-10T14:32:22.124Z,15.35
2023-05-10T14:35:00.679Z,15.57
2023-05-10T14:37:33.637Z,15.61
2023-05-10T14:40:07.599Z,15.57
2023-05-10T14:42:41.921Z,15.47
2023-05-10T14:45:15.057Z,15.67
2023-05-10T14:47:48.187Z,15.79
2023-05-10T14:50:35.157Z,15.79
2023-05-10T14:53:09.369Z,15.64
2023-05-10T14:55:42.240Z,15.61
2023-05-10T14:58:17.541Z,15.34
2023-05-10T15:00:50.676Z,15.50
2023-05-10T15:03:24.414Z,15.45
2023-05-10T15:05:58.899Z,15.65
2023-05-10T15:08:32.305Z,15.55
2023-05-10T15:11:05.513Z,15.50
2023-05-10T15:13:39.737Z,15.89
2023-05-10T15:16:12.599Z,15.44
2023-05-10T15:18:45.848Z,15.72
2023-05-10T15:21:19.174Z,15.41
2023-05-10T15:23:52.065Z,15.60
2023-05-10T15:26:25.023Z,15.62
2023-05-10T15:28:59.509Z,15.87
2023-05-10T15:31:32.362Z,15.63
2023-05-10T15:34:05.657Z,15.44
2023-05-10T15:36:38.388Z,15.26
2023-05-10T15:39:11.628Z,15.59
2023-05-10T15:41:44.796Z,15.43
2023-05-10T15:44:19.537Z,15.67
2023-05-10T15:46:52.870Z,15.78
2023-05-10T15:49:26.105Z,15.38
2023-05-10T15:51:59.166Z,15.49
2023-05-10T15:54:32.303Z,15.14
2023-05-10T15:57:05.362Z,15.17
2023-05-10T15:59:39.842Z,15.61
2023-05-10T16:02:12.759Z,15.66
2023-05-10T16:04:45.884Z,15.57
2023-05-10T16:07:18.939Z,15.63
2023-05-10T16:09:51.861Z,15.40
2023-05-10T16:12:24.822Z,15.49
2023-05-10T16:14:59.324Z,15.98
2023-05-10T16:17:32.653Z,15.57
2023-05-10T16:20:06.235Z,15.08
2023-05-10T16:22:39.095Z,15.11
2023-05-10T16:25:13.990Z,15.48
2023-05-10T16:27:47.998Z,15.97
2023-05-10T16:30:24.457Z,15.86
2023-05-10T16:32:57.629Z,16.47
2023-05-10T16:35:31.019Z,15.86
2023-05-10T16:38:04.074Z,16.30
2023-05-10T16:40:36.979Z,16.79
2023-05-10T16:43:10.062Z,16.31
2023-05-10T16:45:44.654Z,16.47
2023-05-10T16:48:17.554Z,16.11
2023-05-10T16:50:50.369Z,16.45
2023-05-10T16:53:23.263Z,15.93
2023-05-10T16:55:56.300Z,15.77
2023-05-10T16:58:29.419Z,16.63
2023-05-10T17:01:03.894Z,15.70
2023-05-10T17:03:36.928Z,15.74
2023-05-10T17:06:10.221Z,16.18
2023-05-10T17:08:43.302Z,15.93
2023-05-10T17:11:16.364Z,16.35
2023-05-10T17:13:49.377Z,16.23
2023-05-10T17:16:23.732Z,16.60
2023-05-10T17:18:56.765Z,16.43
2023-05-10T17:21:29.832Z,15.53
2023-05-10T17:24:03.229Z,16.44
2023-05-10T17:26:36.285Z,15.44
2023-05-10T17:29:09.471Z,15.87
2023-05-10T17:31:43.846Z,16.12
2023-05-10T17:34:18.098Z,15.08
2023-05-10T17:36:51.067Z,16.60
2023-05-10T17:39:24.344Z,16.15
2023-05-10T17:41:57.633Z,16.50
2023-05-10T17:44:30.707Z,16.77
2023-05-10T17:47:06.419Z,15.02
2023-05-10T17:49:39.835Z,16.59
2023-05-10T17:52:12.637Z,16.76
2023-05-10T17:54:45.790Z,16.95
2023-05-10T17:57:18.731Z,17.02
2023-05-10T17:59:51.569Z,16.37
2023-05-10T18:02:25.794Z,17.05
2023-05-10T18:05:03.667Z,16.32
2023-05-10T18:07:37.106Z,15.44
2023-05-10T18:10:10.725Z,16.61
2023-05-10T18:12:43.949Z,14.82
2023-05-10T18:15:16.964Z,16.05
2023-05-10T18:17:52.036Z,16.29
2023-05-10T18:20:26.001Z,15.70
2023-05-10T18:22:59.141Z,16.50
2023-05-10T18:25:32.333Z,16.41
2023-05-10T18:28:05.838Z,16.30
2023-05-10T18:30:38.945Z,16.76
2023-05-10T18:33:13.633Z,15.97
2023-05-10T18:35:47.350Z,16.75
2023-05-10T18:38:20.555Z,16.36
2023-05-10T18:40:53.817Z,15.86
2023-05-10T18:43:27.143Z,16.60
2023-05-10T18:46:00.641Z,14.85
2023-05-10T18:48:35.152Z,15.09
2023-05-10T18:51:08.434Z,15.56
2023-05-10T18:53:41.391Z,15.28
2023-05-10T18:56:14.395Z,15.30
2023-05-10T18:58:47.350Z,15.26
2023-05-10T19:01:20.734Z,14.77
2023-05-10T19:03:55.162Z,14.95
2023-05-10T19:06:28.150Z,14.49
2023-05-10T19:09:01.165Z,14.54
2023-05-10T19:11:34.604Z,14.75
2023-05-10T19:14:07.948Z,14.57
2023-05-10T19:16:42.841Z,14.65
2023-05-10T19:19:20.199Z,14.78
2023-05-10T19:21:54.781Z,14.49
2023-05-10T19:24:27.886Z,14.39
2023-05-10T19:27:02.196Z,14.09
2023-05-10T19:29:35.639Z,13.97
2023-05-10T19:32:09.321Z,14.01
2023-05-10T19:34:43.947Z,13.10
2023-05-10T19:37:16.872Z,13.31
2023-05-10T19:39:50.122Z,13.71
2023-05-10T19:42:23.067Z,13.50
2023-05-10T19:45:00.277Z,13.64
2023-05-10T19:47:35.256Z,13.28
2023-05-10T19:50:10.343Z,13.64
2023-05-10T19:52:43.406Z,12.92
2023-05-10T19:55:26.145Z,13.33
2023-05-10T19:58:00.628Z,13.39
2023-05-10T20:00:34.032Z,13.27
2023-05-10T20:03:09.168Z,12.62
2023-05-10T20:05:44.140Z,12.41
2023-05-10T20:08:16.930Z,12.70
2023-05-10T20:10:49.854Z,13.13
2023-05-10T20:13:23.234Z,12.76
2023-05-10T20:15:57.072Z,12.17
2023-05-10T20:18:30.226Z,12.34
2023-05-10T20:21:04.858Z,12.28
2023-05-10T20:23:37.826Z,11.96
2023-05-10T20:26:11.000Z,12.25
2023-05-10T20:28:44.344Z,12.47
2023-05-10T20:31:17.493Z,12.87
2023-05-10T20:33:50.398Z,12.21
2023-05-10T20:36:24.893Z,12.10
2023-05-10T20:38:58.029Z,12.06
2023-05-10T20:41:31.359Z,12.36
2023-05-10T20:44:05.612Z,12.81
2023-05-10T20:46:38.800Z,13.04
2023-05-10T20:49:12.749Z,12.95
2023-05-10T20:51:46.958Z,12.22
2023-05-10T20:54:20.225Z,12.20
2023-05-10T20:56:53.818Z,11.50
2023-05-10T20:59:26.859Z,11.42
2023-05-10T21:02:00.114Z,11.62
2023-05-10T21:04:33.500Z,11.82
2023-05-10T21:07:08.040Z,11.33
2023-05-10T21:09:40.929Z,11.42
2023-05-10T21:12:14.244Z,11.81
2023-05-10T21:14:47.856Z,11.80
2023-05-10T21:17:20.728Z,12.08
2023-05-10T21:19:53.652Z,11.86
2023-05-10T21:22:28.056Z,11.59
2023-05-10T21:25:01.302Z,12.01
2023-05-10T21:27:34.288Z,12.18
2023-05-10T21:30:07.736Z,12.05
2023-05-10T21:32:40.681Z,11.65
2023-05-10T21:35:13.845Z,12.24
2023-05-10T21:37:48.318Z,12.31
2023-05-10T21:40:21.470Z,12.33
2023-05-10T21:42:54.348Z,11.38
2023-05-10T21:45:29.244Z,10.91
2023-05-10T21:48:02.558Z,11.30
2023-05-10T21:50:35.534Z,11.93
2023-05-10T21:53:09.756Z,11.78
2023-05-10T21:55:42.624Z,11.58
2023-05-10T21:58:15.709Z,11.46
2023-05-10T22:00:48.690Z,12.12
2023-05-10T22:03:22.005Z,12.19
2023-05-10T22:05:55.046Z,11.47
2023-05-10T22:08:29.416Z,11.47
2023-05-10T22:11:02.322Z,11.19
2023-05-10T22:13:35.237Z,11.29
2023-05-10T22:16:08.437Z,11.31
2023-05-10T22:18:41.516Z,10.99
2023-05-10T22:21:14.443Z,11.30
2023-05-10T22:23:48.666Z,11.87
2023-05-10T22:26:21.653Z,12.01
2023-05-10T22:28:54.493Z,10.79
2023-05-10T22:31:27.648Z,10.58
2023-05-10T22:34:00.609Z,11.04
2023-05-10T22:36:33.616Z,11.16
2023-05-10T22:39:07.797Z,10.97
2023-05-10T22:41:40.755Z,11.31
2023-05-10T22:44:13.576Z,11.27
2023-05-10T22:46:46.643Z,11.37
2023-05-10T22:49:19.549Z,11.30
2023-05-10T22:51:52.665Z,11.67
2023-05-10T22:54:26.911Z,11.32
2023-05-10T22:56:59.796Z,10.61
2023-05-10T22:59:32.732Z,10.09
2023-05-10T23:02:06.179Z,10.34
2023-05-10T23:04:39.096Z,10.37
2023-05-10T23:07:12.212Z,10.45
2023-05-10T23:09:46.917Z,10.52
2023-05-10T23:12:19.798Z,10.11
2023-05-10T23:14:52.659Z,10.83
2023-05-10T23:17:25.770Z,10.49
2023-05-10T23:19:59.539Z,10.48
2023-05-10T23:22:32.379Z,10.70
2023-05-10T23:25:07.291Z,10.14
2023-05-10T23:27:40.101Z,10.78
2023-05-10T23:30:13.413Z,10.95
2023-05-10T23:32:46.272Z,10.61
2023-05-10T23:35:18.999Z,11.13
2023-05-10T23:37:52.039Z,10.89
2023-05-10T23:40:27.364Z,11.01
2023-05-10T23:43:00.763Z,11.17
2023-05-10T23:45:33.863Z,10.80
2023-05-10T23:48:06.796Z,10.31
2023-05-10T23:50:39.607Z,10.64
2023-05-10T23:53:12.392Z,10.35
2023-05-10T23:55:46.940Z,10.26
2023-05-10T23:58:19.828Z,11.00
